Time;durP1;ratioP1;P1;durP2;ratioP2;P2;SDS_P1;SDS_P2;PMS_P1;PMS_P2;Temp;Humidity;BMP_temperature;BMP_pressure;BME280_temperature;BME280_humidity;BME280_pressure;Samples;Min_cycle;Max_cycle;Signal;HPM_P1;HPM_P2
2022/06/16 00:00:40;;;;;;;5.63;2.88;;;23.20;89.40;;;;;;5027705;28;20254;-38
2022/06/16 00:03:08;;;;;;;7.13;3.05;;;23.20;89.30;;;;;;5027346;28;20698;-38
2022/06/16 00:05:39;;;;;;;5.13;2.72;;;23.10;89.40;;;;;;5026553;28;20259;-38
2022/06/16 00:08:13;;;;;;;4.53;2.80;;;23.10;90.00;;;;;;5025704;28;20274;-38
2022/06/16 00:13:34;;;;;;;4.35;3.20;;;23.00;90.00;;;;;;5027850;28;20240;-38
2022/06/16 00:16:02;;;;;;;4.28;2.88;;;22.90;90.00;;;;;;5027534;28;20269;-38
2022/06/16 00:18:32;;;;;;;4.90;3.13;;;22.90;89.80;;;;;;5028048;28;20228;-38
2022/06/16 00:20:59;;;;;;;3.72;2.85;;;22.90;90.10;;;;;;5044805;28;20661;-38
2022/06/16 00:23:29;;;;;;;3.25;2.80;;;22.90;89.90;;;;;;5047619;28;20270;-38
2022/06/16 00:26:15;;;;;;;4.20;2.92;;;22.80;90.00;;;;;;5047578;28;20207;-38
2022/06/16 00:28:45;;;;;;;4.63;3.17;;;22.80;90.00;;;;;;5035911;28;20319;-38
2022/06/16 00:31:15;;;;;;;4.38;2.78;;;22.80;90.10;;;;;;5026631;28;20201;-42
2022/06/16 00:33:42;;;;;;;3.67;2.88;;;22.70;90.40;;;;;;5027454;28;20442;-42
2022/06/16 00:36:11;;;;;;;4.22;3.08;;;22.70;90.00;;;;;;5027462;28;20196;-41
2022/06/16 00:38:41;;;;;;;3.90;3.22;;;22.70;90.10;;;;;;5028813;28;20204;-41
2022/06/16 00:41:12;;;;;;;6.30;3.50;;;22.70;90.10;;;;;;5062596;28;20220;-42
2022/06/16 00:43:42;;;;;;;4.70;3.13;;;22.60;90.20;;;;;;5029851;28;20221;-42
2022/06/16 00:46:17;;;;;;;4.10;3.35;;;22.60;90.40;;;;;;5030465;28;20220;-41
2022/06/16 00:48:58;;;;;;;4.18;2.95;;;22.60;90.20;;;;;;5028131;28;20563;-42
2022/06/16 00:51:35;;;;;;;4.40;3.10;;;22.60;90.30;;;;;;5031262;28;20200;-41
2022/06/16 00:54:22;;;;;;;5.05;3.50;;;22.50;90.30;;;;;;5031127;28;20287;-41
2022/06/16 00:56:51;;;;;;;6.22;3.45;;;22.50;90.40;;;;;;5030674;28;20832;-42
2022/06/16 00:59:22;;;;;;;5.07;3.13;;;22.40;90.20;;;;;;5028555;28;20209;-42
2022/06/16 01:01:52;;;;;;;5.15;3.40;;;22.30;90.30;;;;;;5029497;28;20304;-41
2022/06/16 01:07:12;;;;;;;3.75;3.00;;;22.30;90.40;;;;;;5029692;28;20690;-41
2022/06/16 01:09:43;;;;;;;3.90;3.00;;;22.20;90.40;;;;;;5030367;28;20208;-46
2022/06/16 01:15:42;;;;;;;4.15;3.40;;;22.20;90.50;;;;;;5021734;28;20193;-42
2022/06/16 01:18:15;;;;;;;9.77;3.40;;;22.10;90.50;;;;;;5029744;28;20498;-42
2022/06/16 01:20:52;;;;;;;5.53;3.42;;;22.10;90.50;;;;;;5036035;28;20227;-42
2022/06/16 01:23:43;;;;;;;5.80;3.25;;;22.10;90.40;;;;;;5029717;28;20204;-41
2022/06/16 01:26:45;;;;;;;6.68;3.30;;;22.10;90.60;;;;;;5030407;28;20221;-40
2022/06/16 01:29:56;;;;;;;4.85;3.28;;;22.00;90.60;;;;;;5020951;28;20354;-41
2022/06/16 01:32:32;;;;;;;4.43;3.00;;;21.90;90.90;;;;;;5024434;28;20231;-41
2022/06/16 01:35:09;;;;;;;4.82;3.28;;;21.90;90.70;;;;;;5030540;28;20227;-41
2022/06/16 01:37:52;;;;;;;4.93;3.42;;;21.80;90.50;;;;;;5029673;28;20216;-42
2022/06/16 01:40:35;;;;;;;4.65;3.33;;;21.80;90.60;;;;;;5029826;28;20411;-42
2022/06/16 01:43:29;;;;;;;6.47;3.60;;;21.80;90.70;;;;;;5028725;28;20883;-41
2022/06/16 01:46:08;;;;;;;4.93;3.35;;;21.80;90.80;;;;;;5030014;28;20201;-41
2022/06/16 01:48:37;;;;;;;4.28;3.20;;;21.70;90.70;;;;;;5029320;28;20217;-40
2022/06/16 01:51:28;;;;;;;4.13;3.00;;;21.70;90.60;;;;;;5028665;28;20313;-41
2022/06/16 01:54:12;;;;;;;6.65;3.80;;;21.70;90.80;;;;;;5028643;28;20205;-41
2022/06/16 01:56:49;;;;;;;5.55;3.28;;;21.60;90.80;;;;;;5029723;28;20244;-41
2022/06/16 01:59:25;;;;;;;4.30;3.78;;;21.60;90.90;;;;;;5029917;28;20303;-41
2022/06/16 02:02:04;;;;;;;4.35;3.95;;;21.60;90.80;;;;;;5029462;28;20841;-41
2022/06/16 02:04:38;;;;;;;5.45;3.75;;;21.50;90.80;;;;;;5029738;28;20630;-41
2022/06/16 02:07:11;;;;;;;7.47;3.70;;;21.50;90.90;;;;;;5028669;28;20212;-41
2022/06/16 02:09:44;;;;;;;4.22;3.80;;;21.50;90.80;;;;;;5029593;28;20196;-41
2022/06/16 02:12:55;;;;;;;5.50;4.00;;;21.40;90.80;;;;;;5029233;28;20642;-42
2022/06/16 02:15:48;;;;;;;5.72;3.58;;;21.40;91.00;;;;;;5029289;28;20205;-41
2022/06/16 02:18:24;;;;;;;4.47;3.55;;;21.30;91.10;;;;;;4999876;28;20252;-41
2022/06/16 02:20:59;;;;;;;5.60;3.60;;;21.30;91.00;;;;;;5036936;28;20652;-41
2022/06/16 02:23:27;;;;;;;6.35;3.55;;;21.20;91.00;;;;;;5029009;28;20644;-41
2022/06/16 02:25:56;;;;;;;6.43;3.67;;;21.20;90.90;;;;;;5028003;28;20212;-40
2022/06/16 02:28:29;;;;;;;4.18;3.78;;;21.20;90.90;;;;;;5028772;28;20236;-41
2022/06/16 02:30:56;;;;;;;5.28;4.10;;;21.20;91.00;;;;;;5029000;28;20266;-41
2022/06/16 02:33:44;;;;;;;6.78;3.63;;;21.10;90.90;;;;;;5029004;28;20220;-42
2022/06/16 02:36:23;;;;;;;5.07;3.63;;;21.10;91.60;;;;;;5009327;28;20205;-41
2022/06/16 02:38:59;;;;;;;4.55;3.35;;;21.10;91.30;;;;;;5009154;28;20239;-41
2022/06/16 02:41:47;;;;;;;4.80;3.40;;;21.00;91.00;;;;;;5009222;28;20668;-40
2022/06/16 02:44:42;;;;;;;4.13;3.72;;;21.00;91.20;;;;;;5015911;28;20300;-40
2022/06/16 02:47:20;;;;;;;5.72;3.50;;;21.00;91.20;;;;;;5028296;28;20208;-41
2022/06/16 02:49:58;;;;;;;5.93;3.70;;;20.90;91.60;;;;;;5027671;28;20858;-40
2022/06/16 02:52:40;;;;;;;5.03;3.67;;;20.90;91.10;;;;;;5028341;28;20274;-41
2022/06/16 02:55:19;;;;;;;4.38;3.53;;;20.90;91.00;;;;;;5028684;28;20213;-41
2022/06/16 02:57:52;;;;;;;3.78;3.47;;;20.80;91.10;;;;;;5028586;28;20657;-42
2022/06/16 03:00:28;;;;;;;4.80;3.80;;;20.80;91.10;;;;;;5028829;28;20227;-41
2022/06/16 03:02:57;;;;;;;5.30;4.03;;;20.70;91.20;;;;;;5024386;28;20260;-41
2022/06/16 03:05:27;;;;;;;4.78;4.07;;;20.70;91.00;;;;;;5021331;28;20212;-40
2022/06/16 03:07:57;;;;;;;3.92;3.63;;;20.70;91.20;;;;;;5027801;28;20236;-41
2022/06/16 03:13:14;;;;;;;4.75;4.20;;;20.60;91.20;;;;;;5028719;28;20303;-41
2022/06/16 03:15:42;;;;;;;6.15;4.00;;;20.60;91.10;;;;;;5028736;28;20196;-41
2022/06/16 03:18:11;;;;;;;4.65;4.03;;;20.50;91.20;;;;;;5027443;28;20205;-41
2022/06/16 03:20:39;;;;;;;5.93;3.95;;;20.50;91.20;;;;;;5043379;28;20719;-40
2022/06/16 03:23:08;;;;;;;7.07;3.80;;;20.40;91.00;;;;;;5029028;28;20333;-41
2022/06/16 03:25:39;;;;;;;5.63;4.03;;;20.40;91.20;;;;;;5028174;28;20337;-42
2022/06/16 03:28:09;;;;;;;7.35;3.95;;;20.30;91.20;;;;;;5028193;28;20283;-41
2022/06/16 03:30:38;;;;;;;6.20;3.95;;;20.30;91.10;;;;;;5054010;28;20232;-41
2022/06/16 03:33:07;;;;;;;4.90;3.60;;;20.20;91.10;;;;;;5022140;28;20205;-41
2022/06/16 03:35:38;;;;;;;6.82;4.03;;;20.20;91.10;;;;;;5019239;28;20205;-41
2022/06/16 03:40:52;;;;;;;6.47;4.07;;;20.20;91.20;;;;;;5028405;28;20205;-41
2022/06/16 03:43:24;;;;;;;5.82;3.75;;;20.10;91.10;;;;;;5026846;28;20706;-40
2022/06/16 03:45:54;;;;;;;7.53;4.28;;;20.10;91.00;;;;;;5028233;28;20212;-41
2022/06/16 03:48:29;;;;;;;6.22;4.45;;;20.00;91.00;;;;;;5027878;28;20286;-41
2022/06/16 03:50:56;;;;;;;5.38;4.00;;;20.00;91.20;;;;;;5027970;28;20204;-41
2022/06/16 03:53:24;;;;;;;4.85;4.30;;;20.00;91.10;;;;;;5027524;28;20201;-41
2022/06/16 03:55:52;;;;;;;8.65;4.47;;;20.00;91.20;;;;;;5027879;28;20302;-41
2022/06/16 03:58:19;;;;;;;4.95;4.28;;;20.00;91.30;;;;;;5027749;28;20800;-41
2022/06/16 04:00:46;;;;;;;5.75;4.50;;;19.90;91.30;;;;;;5059810;28;20208;-42
2022/06/16 04:06:05;;;;;;;6.18;5.13;;;19.90;91.60;;;;;;5027612;28;20258;-41
2022/06/16 04:08:32;;;;;;;5.43;4.80;;;19.90;91.40;;;;;;5027580;28;20248;-41
2022/06/16 04:11:26;;;;;;;5.40;4.80;;;19.90;91.50;;;;;;5027695;28;20209;-42
2022/06/16 04:13:47;;;;;;;4.63;3.95;;;19.90;91.70;;;;;;5029777;28;20224;-40
2022/06/16 04:16:14;;;;;;;9.35;4.90;;;19.80;91.50;;;;;;5031317;28;20780;-41
2022/06/16 04:18:44;;;;;;;6.68;4.90;;;19.80;91.80;;;;;;5031898;28;20551;-41
2022/06/16 04:21:14;;;;;;;5.45;4.90;;;19.80;91.70;;;;;;5050770;28;20220;-41
2022/06/16 04:23:42;;;;;;;8.85;5.18;;;19.80;91.60;;;;;;5051385;28;20208;-42
2022/06/16 04:26:09;;;;;;;5.00;4.50;;;19.80;91.60;;;;;;5045600;28;20659;-41
2022/06/16 04:28:38;;;;;;;6.28;4.95;;;19.80;91.70;;;;;;5029113;28;20634;-41
2022/06/16 04:31:10;;;;;;;5.18;4.68;;;19.80;91.70;;;;;;5059950;28;20209;-40
2022/06/16 04:33:38;;;;;;;8.50;5.13;;;19.80;91.50;;;;;;5023714;28;20252;-41
2022/06/16 04:36:09;;;;;;;6.03;4.55;;;19.80;91.60;;;;;;5028889;28;20220;-42
2022/06/16 04:38:36;;;;;;;8.00;4.93;;;19.80;91.60;;;;;;5035054;28;20303;-40
2022/06/16 04:41:06;;;;;;;5.85;4.50;;;19.80;91.70;;;;;;5033598;28;20204;-42
2022/06/16 04:43:36;;;;;;;5.28;4.40;;;19.80;91.70;;;;;;5029601;28;20316;-42
2022/06/16 04:46:05;;;;;;;6.30;4.88;;;19.80;91.70;;;;;;5029722;28;20232;-42
2022/06/16 04:48:33;;;;;;;5.25;4.75;;;19.70;91.60;;;;;;5032763;28;20216;-41
2022/06/16 04:51:03;;;;;;;5.47;4.78;;;19.70;91.80;;;;;;5037238;28;20206;-38
2022/06/16 04:53:31;;;;;;;5.88;4.82;;;19.80;91.70;;;;;;5010992;28;20211;-38
2022/06/16 04:56:00;;;;;;;7.53;5.68;;;19.80;91.80;;;;;;5031569;28;20568;-39
2022/06/16 04:58:50;;;;;;;6.65;5.07;;;19.70;92.10;;;;;;5031516;28;20212;-38
2022/06/16 05:01:18;;;;;;;7.30;5.70;;;19.70;91.80;;;;;;5022240;28;20210;-38
2022/06/16 05:03:50;;;;;;;6.68;5.43;;;19.70;91.90;;;;;;5022730;28;20223;-38
2022/06/16 05:06:18;;;;;;;8.48;5.13;;;19.70;92.00;;;;;;5023684;28;20751;-38
2022/06/16 05:08:45;;;;;;;8.95;5.32;;;19.70;91.90;;;;;;5025127;28;20251;-38
2022/06/16 05:11:12;;;;;;;8.50;5.93;;;19.70;92.00;;;;;;5018425;28;20197;-38
2022/06/16 05:13:42;;;;;;;6.93;5.18;;;19.70;91.80;;;;;;5025930;28;20213;-38
2022/06/16 05:16:14;;;;;;;8.05;4.80;;;19.70;91.90;;;;;;5028764;28;20214;-38
2022/06/16 05:18:41;;;;;;;6.07;5.00;;;19.60;91.70;;;;;;5029908;28;20546;-39
2022/06/16 05:21:12;;;;;;;9.43;5.22;;;19.60;91.70;;;;;;5033236;28;20232;-38
2022/06/16 05:23:42;;;;;;;8.02;5.85;;;19.70;91.70;;;;;;5037693;28;20220;-38
2022/06/16 05:26:10;;;;;;;6.07;5.05;;;19.60;91.70;;;;;;5029804;28;20559;-38
2022/06/16 05:28:37;;;;;;;8.30;6.05;;;19.70;91.80;;;;;;5024727;28;20594;-39
2022/06/16 05:31:07;;;;;;;7.05;5.25;;;19.70;91.80;;;;;;5027199;28;20292;-38
2022/06/16 05:33:35;;;;;;;8.38;5.65;;;19.70;91.80;;;;;;5029457;28;20205;-38
2022/06/16 05:36:10;;;;;;;7.63;5.15;;;19.70;92.10;;;;;;5022620;28;20275;-38
2022/06/16 05:38:38;;;;;;;8.10;5.68;;;19.80;91.80;;;;;;5026924;28;20251;-38
2022/06/16 05:41:12;;;;;;;8.35;5.72;;;19.80;91.80;;;;;;5027438;28;20711;-38
2022/06/16 05:43:40;;;;;;;7.57;5.60;;;19.80;91.90;;;;;;5027160;28;20226;-38
2022/06/16 05:46:22;;;;;;;6.50;5.70;;;19.80;91.80;;;;;;5030862;28;20315;-38
2022/06/16 05:48:52;;;;;;;6.00;5.15;;;19.90;92.20;;;;;;5026737;28;20224;-38
2022/06/16 05:51:22;;;;;;;7.55;5.70;;;19.90;91.90;;;;;;5022777;28;20242;-38
2022/06/16 05:53:50;;;;;;;6.47;4.90;;;19.90;91.90;;;;;;5030822;28;20233;-38
2022/06/16 05:56:21;;;;;;;7.35;5.00;;;19.90;91.80;;;;;;5029476;28;20238;-38
2022/06/16 05:58:53;;;;;;;6.80;4.90;;;20.00;91.90;;;;;;5029481;28;20644;-38
2022/06/16 06:01:20;;;;;;;5.85;4.38;;;20.00;91.90;;;;;;5009069;28;20236;-38
2022/06/16 06:03:48;;;;;;;5.95;5.18;;;20.00;91.80;;;;;;5020654;28;20295;-38
2022/06/16 06:06:17;;;;;;;7.25;5.25;;;20.10;91.90;;;;;;5024797;28;20316;-38
2022/06/16 06:17:21;;;;;;;8.07;5.07;;;20.20;91.80;;;;;;5027927;28;20228;-39
2022/06/16 06:19:53;;;;;;;6.25;4.70;;;20.20;91.80;;;;;;5026489;28;20683;-39
2022/06/16 06:22:26;;;;;;;5.97;4.68;;;20.20;91.70;;;;;;5026960;28;20209;-38
2022/06/16 06:24:58;;;;;;;8.73;5.63;;;20.20;91.70;;;;;;5025268;28;20279;-39
2022/06/16 06:27:46;;;;;;;8.18;4.85;;;20.30;91.80;;;;;;5016620;28;20215;-39
2022/06/16 06:30:22;;;;;;;7.15;4.60;;;20.30;91.70;;;;;;5026588;28;20544;-39
2022/06/16 06:32:49;;;;;;;9.77;5.07;;;20.40;91.80;;;;;;5026630;28;20220;-39
2022/06/16 06:35:17;;;;;;;9.15;4.85;;;20.40;91.80;;;;;;5025525;28;20637;-38
2022/06/16 06:37:44;;;;;;;7.55;5.07;;;20.40;91.80;;;;;;5027921;28;20193;-38
2022/06/16 06:40:22;;;;;;;7.47;5.03;;;20.50;91.80;;;;;;5025605;28;20607;-39
2022/06/16 06:42:55;;;;;;;7.20;4.35;;;20.50;91.80;;;;;;5021397;28;20224;-38
2022/06/16 06:45:22;;;;;;;8.43;5.03;;;20.50;91.70;;;;;;5033617;28;20208;-39
2022/06/16 06:47:53;;;;;;;8.07;5.07;;;20.60;91.90;;;;;;5035294;28;20643;-39
2022/06/16 06:50:27;;;;;;;10.90;5.25;;;20.60;91.90;;;;;;5039435;28;20710;-38
2022/06/16 06:52:54;;;;;;;8.65;5.63;;;20.60;91.90;;;;;;5032254;28;20235;-39
2022/06/16 06:55:24;;;;;;;6.57;5.00;;;20.70;91.90;;;;;;5032833;28;20201;-39
2022/06/16 06:57:53;;;;;;;9.80;4.78;;;20.70;91.90;;;;;;5035613;28;20608;-39
2022/06/16 07:00:25;;;;;;;7.70;4.60;;;20.70;91.80;;;;;;5030538;28;20197;-38
2022/06/16 07:02:53;;;;;;;7.43;4.60;;;20.70;91.90;;;;;;5033872;28;20366;-38
2022/06/16 07:05:22;;;;;;;6.75;4.68;;;20.80;91.90;;;;;;5035817;28;20663;-39
2022/06/16 07:07:50;;;;;;;11.68;5.30;;;20.80;91.90;;;;;;5036980;28;20224;-38
2022/06/16 07:10:18;;;;;;;7.22;4.35;;;20.90;92.00;;;;;;5040029;28;20590;-38
2022/06/16 07:12:46;;;;;;;8.70;5.35;;;20.90;91.90;;;;;;5014953;28;20209;-38
2022/06/16 07:15:13;;;;;;;9.20;5.63;;;20.90;92.00;;;;;;5025949;28;20211;-38
2022/06/16 07:17:40;;;;;;;7.05;4.82;;;20.90;92.00;;;;;;5026216;28;20282;-39
2022/06/16 07:20:09;;;;;;;14.48;5.90;;;20.90;92.00;;;;;;5029213;28;20233;-39
2022/06/16 07:22:38;;;;;;;9.35;5.90;;;20.90;92.00;;;;;;5027654;28;20291;-39
2022/06/16 07:25:09;;;;;;;7.03;4.70;;;20.90;92.00;;;;;;5033394;28;20205;-39
2022/06/16 07:27:37;;;;;;;6.03;4.50;;;20.90;92.00;;;;;;5025950;28;20224;-38
2022/06/16 07:30:14;;;;;;;8.23;5.15;;;20.90;91.90;;;;;;5019368;28;20267;-38
2022/06/16 07:32:42;;;;;;;8.38;5.43;;;20.90;92.10;;;;;;5022729;28;20205;-38
2022/06/16 07:35:12;;;;;;;6.10;5.40;;;20.90;92.00;;;;;;5023478;28;20204;-39
2022/06/16 07:37:39;;;;;;;5.80;4.93;;;20.90;91.90;;;;;;5026711;28;20694;-39
2022/06/16 07:40:08;;;;;;;9.90;5.50;;;20.90;91.90;;;;;;5028921;28;20205;-38
2022/06/16 07:42:40;;;;;;;9.65;6.03;;;21.00;91.90;;;;;;5011470;28;20263;-39
2022/06/16 07:45:10;;;;;;;9.23;5.85;;;21.00;91.90;;;;;;5027418;28;20582;-37
2022/06/16 07:47:40;;;;;;;5.43;4.88;;;21.00;92.00;;;;;;5026717;28;20236;-37
2022/06/16 07:50:09;;;;;;;8.02;4.45;;;21.00;91.90;;;;;;5024758;28;20880;-37
2022/06/16 07:52:41;;;;;;;10.60;5.30;;;21.10;91.90;;;;;;5025721;28;20201;-37
2022/06/16 07:55:10;;;;;;;5.38;4.57;;;21.10;92.00;;;;;;5057140;28;20343;-38
2022/06/16 07:57:48;;;;;;;8.32;5.28;;;21.20;92.00;;;;;;5030392;28;20225;-38
2022/06/16 08:00:21;;;;;;;6.53;3.65;;;21.20;92.00;;;;;;5026297;28;20215;-37
2022/06/16 08:02:55;;;;;;;5.95;4.32;;;21.30;92.00;;;;;;5025395;28;20301;-38
2022/06/16 08:05:27;;;;;;;5.63;4.13;;;21.30;92.00;;;;;;5022129;28;20193;-37
2022/06/16 08:07:55;;;;;;;4.97;4.00;;;21.40;92.10;;;;;;5026086;28;20217;-37
2022/06/16 08:10:25;;;;;;;5.13;3.63;;;21.40;92.00;;;;;;5026642;28;20638;-37
2022/06/16 08:12:56;;;;;;;5.95;4.50;;;21.50;92.10;;;;;;5026264;28;20201;-37
2022/06/16 08:15:26;;;;;;;6.07;3.90;;;21.50;92.10;;;;;;5026040;28;20217;-38
2022/06/16 08:17:56;;;;;;;6.45;3.78;;;21.60;92.10;;;;;;5026953;28;20879;-38
2022/06/16 08:20:26;;;;;;;5.95;3.50;;;21.60;92.10;;;;;;5026710;28;20201;-38
2022/06/16 08:23:01;;;;;;;5.43;3.80;;;21.70;92.20;;;;;;5026168;28;20554;-38
2022/06/16 08:25:32;;;;;;;6.55;4.13;;;21.80;92.20;;;;;;5026462;28;20215;-38
2022/06/16 08:28:05;;;;;;;7.20;4.53;;;21.80;92.20;;;;;;5017563;28;20209;-37
2022/06/16 08:30:33;;;;;;;7.18;4.30;;;21.80;92.20;;;;;;5012630;28;20653;-38
2022/06/16 08:33:03;;;;;;;4.18;3.40;;;21.80;92.20;;;;;;5018515;28;20213;-37
2022/06/16 08:35:31;;;;;;;7.05;4.22;;;21.80;92.20;;;;;;5012160;28;20203;-38
2022/06/16 08:38:04;;;;;;;6.35;3.97;;;21.80;92.10;;;;;;5025458;28;20213;-38
2022/06/16 08:40:35;;;;;;;5.03;3.50;;;21.90;92.20;;;;;;5025914;28;20209;-37
2022/06/16 08:43:10;;;;;;;4.80;2.90;;;21.90;92.20;;;;;;5024287;28;20221;-37
2022/06/16 08:45:42;;;;;;;7.10;3.88;;;22.00;92.20;;;;;;5022844;28;20205;-37
2022/06/16 08:48:34;;;;;;;13.38;4.13;;;22.00;92.20;;;;;;5026890;28;20212;-37
2022/06/16 08:51:31;;;;;;;4.93;3.67;;;22.10;92.10;;;;;;5025839;28;20225;-38
2022/06/16 08:54:05;;;;;;;7.00;3.70;;;22.10;92.00;;;;;;5025695;28;20292;-38
2022/06/16 08:56:49;;;;;;;4.32;3.42;;;22.10;91.90;;;;;;5023892;28;20233;-38
2022/06/16 08:59:16;;;;;;;7.10;4.18;;;22.10;91.80;;;;;;5027183;28;20223;-37
2022/06/16 09:01:49;;;;;;;6.50;3.35;;;22.00;91.70;;;;;;5027181;28;20205;-37
2022/06/16 09:04:31;;;;;;;4.75;3.05;;;22.10;91.80;;;;;;5025636;28;20290;-37
2022/06/16 09:07:01;;;;;;;5.40;3.03;;;22.20;91.90;;;;;;5026739;28;20216;-38
2022/06/16 09:12:45;;;;;;;5.85;3.50;;;22.20;91.60;;;;;;5028255;28;20201;-38
2022/06/16 09:15:31;;;;;;;6.88;4.18;;;22.20;91.60;;;;;;5028457;28;20291;-38
2022/06/16 09:18:04;;;;;;;5.93;3.72;;;22.30;91.30;;;;;;5029345;28;20317;-38
2022/06/16 09:20:48;;;;;;;9.13;3.95;;;22.30;91.50;;;;;;5028970;28;20212;-38
2022/06/16 09:23:21;;;;;;;6.43;3.70;;;22.30;91.60;;;;;;5026304;28;20639;-37
2022/06/16 09:25:58;;;;;;;7.50;3.30;;;22.40;91.50;;;;;;5028177;28;20315;-37
2022/06/16 09:29:09;;;;;;;4.97;3.17;;;22.40;91.60;;;;;;5032056;28;20207;-37
2022/06/16 09:31:42;;;;;;;5.65;3.70;;;22.50;91.60;;;;;;5010275;28;20201;-37
2022/06/16 09:34:26;;;;;;;5.63;3.28;;;22.60;91.70;;;;;;5029898;28;20279;-37
2022/06/16 09:37:02;;;;;;;4.82;3.22;;;22.60;91.70;;;;;;5033112;28;20323;-37
2022/06/16 09:39:41;;;;;;;6.03;3.10;;;22.60;91.30;;;;;;5032401;28;20246;-37
2022/06/16 09:42:35;;;;;;;7.45;4.13;;;22.60;91.30;;;;;;5029032;28;20271;-37
2022/06/16 09:45:31;;;;;;;5.25;2.83;;;22.60;90.90;;;;;;5041271;28;20291;-37
2022/06/16 09:48:26;;;;;;;5.75;2.90;;;22.70;91.20;;;;;;5025656;28;20683;-37
2022/06/16 09:51:22;;;;;;;5.28;2.70;;;22.70;91.20;;;;;;5029829;28;20248;-38
2022/06/16 09:54:03;;;;;;;6.07;3.10;;;22.70;91.10;;;;;;5007444;28;20205;-37
2022/06/16 09:56:43;;;;;;;5.90;2.50;;;22.70;90.70;;;;;;5030801;28;20188;-39
2022/06/16 09:59:18;;;;;;;5.70;2.90;;;22.80;90.90;;;;;;5034156;28;20204;-39
2022/06/16 10:02:09;;;;;;;3.80;2.53;;;22.80;91.10;;;;;;5028129;28;20246;-39
2022/06/16 10:04:43;;;;;;;3.83;2.92;;;22.90;91.20;;;;;;5022916;28;20215;-39
2022/06/16 10:07:25;;;;;;;4.32;2.50;;;22.90;91.10;;;;;;5018013;28;20288;-38
2022/06/16 10:10:01;;;;;;;3.75;2.60;;;23.00;91.20;;;;;;5026897;28;20715;-38
2022/06/16 10:12:28;;;;;;;3.63;2.00;;;23.10;91.30;;;;;;5027281;28;20246;-38
2022/06/16 10:15:20;;;;;;;3.28;2.45;;;23.10;91.30;;;;;;5024134;28;20656;-38
2022/06/16 10:17:52;;;;;;;2.72;1.88;;;23.20;90.90;;;;;;5022073;28;20197;-38
2022/06/16 10:20:21;;;;;;;3.97;1.77;;;23.20;91.00;;;;;;5030212;28;20205;-40
2022/06/16 10:23:04;;;;;;;2.75;1.77;;;23.20;90.40;;;;;;5024689;28;20201;-39
2022/06/16 10:25:40;;;;;;;6.35;1.83;;;23.20;90.20;;;;;;5026159;28;20204;-40
2022/06/16 10:28:19;;;;;;;6.72;2.15;;;23.30;90.30;;;;;;5023225;28;20228;-39
2022/06/16 10:30:49;;;;;;;6.85;2.10;;;23.30;90.60;;;;;;5015576;28;20303;-39
2022/06/16 10:33:47;;;;;;;3.28;2.00;;;23.40;90.50;;;;;;5022565;28;20219;-39
2022/06/16 10:36:24;;;;;;;3.60;1.88;;;23.50;90.50;;;;;;5019917;28;20221;-39
2022/06/16 10:39:20;;;;;;;2.40;1.60;;;23.50;90.40;;;;;;5023163;28;20197;-39
2022/06/16 10:42:14;;;;;;;3.78;2.00;;;23.60;90.20;;;;;;5029752;28;20201;-39
2022/06/16 10:44:52;;;;;;;3.40;1.70;;;23.60;90.40;;;;;;5024118;28;20300;-39
2022/06/16 10:47:27;;;;;;;4.30;2.10;;;23.70;90.70;;;;;;5022873;28;20228;-39
2022/06/16 10:49:57;;;;;;;2.47;1.77;;;23.70;90.40;;;;;;5024119;28;20239;-39
2022/06/16 10:52:38;;;;;;;5.60;2.40;;;23.80;90.70;;;;;;5022325;28;20209;-39
2022/06/16 10:55:10;;;;;;;5.82;2.00;;;23.80;90.50;;;;;;5024230;28;20351;-39
2022/06/16 10:58:07;;;;;;;3.67;1.92;;;23.90;90.50;;;;;;5026801;28;20275;-39
2022/06/16 11:00:39;;;;;;;4.70;1.60;;;23.90;90.60;;;;;;5025779;28;20723;-39
2022/06/16 11:03:10;;;;;;;4.53;2.35;;;24.00;90.90;;;;;;5017607;28;20356;-38
2022/06/16 11:05:50;;;;;;;6.78;2.00;;;24.00;90.20;;;;;;5025888;28;20295;-38
2022/06/16 11:08:18;;;;;;;5.25;2.20;;;24.10;90.50;;;;;;5024224;28;20216;-38
2022/06/16 11:11:13;;;;;;;5.85;2.22;;;24.20;90.70;;;;;;5042289;28;20285;-37
2022/06/16 11:13:54;;;;;;;4.20;2.05;;;24.30;90.80;;;;;;5023233;28;20682;-37
2022/06/16 11:16:37;;;;;;;5.13;2.20;;;24.30;90.70;;;;;;5026767;28;20200;-43
2022/06/16 11:19:17;;;;;;;3.17;2.00;;;24.40;90.90;;;;;;5026354;28;20232;-42
2022/06/16 11:21:48;;;;;;;5.32;2.00;;;24.50;90.90;;;;;;5023089;28;20300;-42
2022/06/16 11:24:32;;;;;;;5.07;2.00;;;24.50;90.70;;;;;;5023502;28;20261;-42
2022/06/16 11:27:11;;;;;;;4.43;2.13;;;24.60;90.90;;;;;;5022069;28;20213;-43
2022/06/16 11:29:44;;;;;;;6.57;2.10;;;24.60;91.00;;;;;;5026669;28;20671;-42
2022/06/16 11:32:28;;;;;;;2.63;1.70;;;24.70;90.10;;;;;;5021322;28;20211;-43
2022/06/16 11:34:56;;;;;;;4.07;1.95;;;24.70;90.50;;;;;;5026292;28;20212;-43
2022/06/16 11:37:39;;;;;;;4.47;2.10;;;24.80;90.30;;;;;;5025693;28;20208;-43
2022/06/16 11:40:42;;;;;;;8.00;3.15;;;24.80;90.70;;;;;;5022260;28;20213;-42
2022/06/16 11:43:53;;;;;;;5.40;2.30;;;24.90;90.40;;;;;;5025660;28;20717;-42
2022/06/16 11:46:41;;;;;;;3.63;2.25;;;24.90;89.90;;;;;;4998416;28;20209;-42
2022/06/16 11:49:11;;;;;;;3.22;1.77;;;24.90;89.70;;;;;;5025193;28;20695;-42
2022/06/16 11:52:19;;;;;;;2.72;1.90;;;24.90;90.10;;;;;;5025407;28;20825;-43
2022/06/16 11:54:56;;;;;;;4.57;2.03;;;25.00;90.20;;;;;;5024771;28;20279;-44
2022/06/16 11:57:26;;;;;;;5.60;2.30;;;25.00;90.20;;;;;;5025105;28;20809;-43
2022/06/16 12:00:13;;;;;;;4.47;1.95;;;25.00;89.60;;;;;;5023102;28;20201;-42
2022/06/16 12:02:48;;;;;;;2.90;2.15;;;25.10;89.70;;;;;;5014092;28;20199;-44
2022/06/16 12:05:35;;;;;;;2.28;1.70;;;25.10;89.90;;;;;;5025638;28;20216;-41
2022/06/16 12:08:30;;;;;;;4.70;1.92;;;25.10;89.60;;;;;;5019416;28;20231;-42
2022/06/16 12:11:12;;;;;;;2.40;2.00;;;25.20;89.90;;;;;;5018252;28;20237;-42
2022/06/16 12:13:49;;;;;;;3.80;1.55;;;25.20;90.00;;;;;;5019642;28;20200;-43
2022/06/16 12:16:35;;;;;;;3.03;1.80;;;25.20;90.10;;;;;;5023826;28;20201;-42
2022/06/16 12:19:37;;;;;;;4.25;1.92;;;25.30;90.10;;;;;;5025515;28;20201;-37
2022/06/16 12:22:48;;;;;;;2.95;1.75;;;25.30;89.60;;;;;;5022200;28;20957;-37
2022/06/16 12:25:35;;;;;;;4.75;2.38;;;25.40;90.00;;;;;;5023261;28;20299;-37
2022/06/16 12:28:42;;;;;;;5.47;2.10;;;25.40;90.20;;;;;;5023739;28;20212;-37
2022/06/16 12:31:32;;;;;;;3.63;1.60;;;25.50;90.10;;;;;;5020460;28;20318;-37
2022/06/16 12:34:02;;;;;;;4.53;2.10;;;25.70;90.10;;;;;;5027335;28;20199;-36
2022/06/16 12:36:37;;;;;;;2.60;1.92;;;25.70;89.70;;;;;;5009427;28;20208;-37
2022/06/16 12:39:30;;;;;;;5.68;2.05;;;25.70;88.90;;;;;;5024211;28;20670;-38
2022/06/16 12:42:10;;;;;;;8.35;1.90;;;25.80;90.00;;;;;;5015792;28;20307;-39
2022/06/16 12:45:13;;;;;;;3.08;1.70;;;25.80;88.50;;;;;;5018576;28;20231;-39
2022/06/16 12:48:09;;;;;;;3.47;1.95;;;25.80;88.20;;;;;;5024481;28;20208;-39
2022/06/16 12:50:40;;;;;;;2.03;1.83;;;25.90;86.40;;;;;;5028754;28;20225;-39
2022/06/16 12:53:13;;;;;;;1.95;1.73;;;25.90;88.80;;;;;;5025289;28;20200;-39
2022/06/16 12:56:20;;;;;;;2.88;1.88;;;26.00;89.40;;;;;;5029869;28;20201;-39
2022/06/16 12:58:52;;;;;;;3.55;1.67;;;26.00;90.00;;;;;;5020844;28;20219;-39
2022/06/16 13:01:19;;;;;;;6.22;2.60;;;26.10;90.00;;;;;;5026769;28;20301;-38
2022/06/16 13:04:11;;;;;;;2.42;1.75;;;26.20;87.90;;;;;;5015765;28;20205;-39
2022/06/16 13:06:45;;;;;;;5.55;1.80;;;26.30;89.90;;;;;;5021802;28;20205;-39
2022/06/16 13:09:15;;;;;;;3.97;1.98;;;26.30;89.90;;;;;;5026759;28;20315;-39
2022/06/16 13:11:52;;;;;;;3.47;1.70;;;26.40;89.20;;;;;;5021493;28;20308;-39
2022/06/16 13:14:57;;;;;;;3.10;2.30;;;26.40;88.80;;;;;;5019707;28;20208;-38
2022/06/16 13:17:38;;;;;;;3.88;1.92;;;26.50;88.00;;;;;;5024130;28;20213;-39
2022/06/16 13:20:15;;;;;;;4.68;1.83;;;26.60;89.50;;;;;;5017429;28;20224;-38
2022/06/16 13:23:03;;;;;;;2.53;1.77;;;26.60;89.10;;;;;;5017697;28;20581;-39
2022/06/16 13:26:09;;;;;;;4.47;2.08;;;26.60;89.40;;;;;;5016410;28;20308;-35
2022/06/16 13:28:42;;;;;;;3.28;1.83;;;26.60;88.90;;;;;;5014971;28;20592;-37
2022/06/16 13:31:11;;;;;;;2.75;1.63;;;26.60;89.40;;;;;;5046080;28;20239;-37
2022/06/16 13:33:44;;;;;;;2.30;1.50;;;26.60;89.80;;;;;;5018277;28;20217;-34
2022/06/16 13:36:18;;;;;;;3.60;1.80;;;26.70;90.00;;;;;;5018038;28;20216;-34
2022/06/16 13:38:47;;;;;;;4.65;2.00;;;26.80;90.10;;;;;;5013860;28;20285;-35
2022/06/16 13:41:36;;;;;;;7.53;2.08;;;26.90;90.30;;;;;;5021401;28;20205;-41
2022/06/16 13:44:26;;;;;;;5.88;1.95;;;27.00;90.40;;;;;;5014520;28;20225;-37
2022/06/16 13:46:56;;;;;;;4.10;1.95;;;27.20;90.20;;;;;;5037134;28;20208;-38
2022/06/16 13:49:43;;;;;;;2.55;1.65;;;27.20;90.30;;;;;;5022040;28;20237;-38
2022/06/16 13:52:15;;;;;;;3.30;2.20;;;27.30;90.10;;;;;;5026580;28;20269;-39
2022/06/16 13:54:47;;;;;;;3.40;2.10;;;27.40;90.00;;;;;;5028543;28;20207;-38
2022/06/16 13:57:24;;;;;;;4.00;1.75;;;27.40;89.10;;;;;;5022158;28;20315;-38
2022/06/16 13:59:55;;;;;;;4.25;2.10;;;27.40;89.90;;;;;;5026832;28;20643;-38